メインページ
METAR-TAF:

METAR-TAF

空港 :

ストックホルム・アーランダ, スウェーデン

ストックホルム・アーランダ空港

緯度: 59-39N, 経度: 017-57E, 海抜: 38m

現時点の気象観測

当レポートは35分前の23:20(UTC)に作成
北/北東の風 6kt
気温 -11°C
湿度 85%
気圧 1039 hPa
視程10km以上
高度500ftの雲はほとんどない
高度1900ftの雲は散在している
小雪

METAR: ESSA 242320Z 02006KT 9999 -SN FEW005 SCT019 M11/M13 Q1039 R01L/410154 R01R/410172 R08/////// NOSIG

時間: 00:55 (23:55 UTC)

予報

当レポートは25分前の23:30(UTC)に作成
予報は25日の 00時(UTC)から 25日の 24時(UTC)まで有効
北/北東の風 5kt
視程10km以上
高度2000ftの雲は散在している
確率 40%
25日の 00時(UTC)から 25日の 15時(UTC)まで
視程: 4000m
高度1400ftの千切れ雲あり, 積乱雲.
弱いにわか雪
25日の 15時(UTC)から 25日の 24時(UTC)まで一時的に
視程: 2000m
高度800ftの千切れ雲あり
にわか雪

TAF: ESSA 242330Z 2500/2524 02005KT 9999 SCT020 PROB40 2500/2515 4000 -SHSN BKN014CB TEMPO 2515/2524 2000 SHSN BKN008

4,000以上の空港の気象観測と天気予報(METAR報とTAF報)

利用可能な観測所は地図上に黄色い丸と赤い丸で示す。

丸の上にカーソルを重ねると観測所名を参照できる。

次にクリックすると気象観測と天気予報を参照できる。

マップの切り替え:黒色「×」印の緑ボタンをクリックして拡大、「-」印の緑ボタンをクリックして縮小、緑色の三角印をクリックして隣りの地図に切り替え


METAR-TAF: